Time;durP1;ratioP1;P1;durP2;ratioP2;P2;SDS_P1;SDS_P2;PMS_P1;PMS_P2;Temp;Humidity;BMP_temperature;BMP_pressure;BME280_temperature;BME280_humidity;BME280_pressure;Samples;Min_cycle;Max_cycle;Signal;HPM_P1;HPM_P2
2022/03/30 00:01:44;;;;;;;9.13;5.20;;;18.70;50.20;;;;;;5104337;27;45221;-77
2022/03/30 00:04:11;;;;;;;6.47;4.38;;;18.70;50.30;;;;;;5108579;27;47743;-77
2022/03/30 00:06:39;;;;;;;7.75;4.95;;;18.70;50.30;;;;;;5110486;27;45217;-77
2022/03/30 00:09:06;;;;;;;6.90;4.85;;;18.70;50.00;;;;;;5109550;27;45211;-77
2022/03/30 00:11:33;;;;;;;8.70;5.47;;;18.70;49.80;;;;;;5107674;27;45470;-77
2022/03/30 00:14:00;;;;;;;6.97;5.32;;;18.70;49.70;;;;;;5109081;27;45416;-77
2022/03/30 00:16:27;;;;;;;7.57;5.15;;;18.70;49.60;;;;;;5110573;27;45220;-77
2022/03/30 00:18:53;;;;;;;7.93;5.10;;;18.70;49.80;;;;;;5106356;27;45211;-77
2022/03/30 00:21:21;;;;;;;8.38;5.57;;;18.70;49.90;;;;;;5096259;27;45340;-77
2022/03/30 00:23:49;;;;;;;8.45;5.72;;;18.70;49.50;;;;;;5107659;27;46267;-77
2022/03/30 00:26:16;;;;;;;7.22;4.88;;;18.70;49.50;;;;;;5108058;27;45459;-77
2022/03/30 00:28:43;;;;;;;6.32;4.55;;;18.60;49.50;;;;;;5106521;27;45249;-77
2022/03/30 00:31:11;;;;;;;8.48;5.28;;;18.60;49.50;;;;;;5111194;27;45212;-77
2022/03/30 00:33:38;;;;;;;6.97;4.78;;;18.60;49.70;;;;;;5115476;27;47125;-78
2022/03/30 00:36:06;;;;;;;7.05;4.80;;;18.60;49.10;;;;;;5107811;27;45219;-77
2022/03/30 00:38:33;;;;;;;8.80;5.43;;;18.60;49.20;;;;;;5109540;27;45285;-77
2022/03/30 00:41:01;;;;;;;7.05;4.97;;;18.60;48.80;;;;;;5110311;27;45314;-77
2022/03/30 00:43:28;;;;;;;9.55;5.35;;;18.60;49.10;;;;;;5108770;27;46623;-77
2022/03/30 00:45:55;;;;;;;6.80;4.78;;;18.70;49.60;;;;;;5105578;27;45326;-77
2022/03/30 00:48:22;;;;;;;8.38;5.38;;;18.70;49.60;;;;;;5108005;27;45459;-78
2022/03/30 00:50:49;;;;;;;7.80;4.95;;;18.70;49.60;;;;;;5108079;27;45480;-77
2022/03/30 00:53:15;;;;;;;8.73;4.68;;;18.70;49.60;;;;;;5107296;27;45471;-77
2022/03/30 00:55:42;;;;;;;5.80;4.30;;;18.70;49.80;;;;;;5109897;27;45186;-77
2022/03/30 00:58:11;;;;;;;6.47;4.38;;;18.70;49.80;;;;;;5105738;27;45552;-77
2022/03/30 01:00:38;;;;;;;6.88;4.80;;;18.70;49.60;;;;;;5109561;27;45189;-77
2022/03/30 01:03:05;;;;;;;5.82;4.22;;;18.70;49.70;;;;;;5104747;27;46194;-77
2022/03/30 01:05:32;;;;;;;5.88;4.10;;;18.70;49.50;;;;;;5109255;27;45428;-77
2022/03/30 01:07:59;;;;;;;6.63;4.68;;;18.70;49.90;;;;;;5109633;27;45123;-77
2022/03/30 01:10:26;;;;;;;7.00;4.85;;;18.70;49.50;;;;;;5109227;27;45159;-77
2022/03/30 01:12:54;;;;;;;7.45;4.68;;;18.70;49.30;;;;;;5106325;27;45440;-77
2022/03/30 01:15:23;;;;;;;7.88;5.53;;;18.70;49.10;;;;;;5108435;27;45293;-77
2022/03/30 01:17:50;;;;;;;7.97;5.45;;;18.70;49.20;;;;;;5108827;27;45262;-78
2022/03/30 01:20:21;;;;;;;8.10;4.97;;;18.70;48.90;;;;;;5106622;27;45255;-77
2022/03/30 01:22:50;;;;;;;7.15;4.93;;;18.70;49.00;;;;;;5109272;27;46452;-77
2022/03/30 01:25:18;;;;;;;8.93;5.28;;;18.60;48.50;;;;;;5107802;27;45350;-77
2022/03/30 01:27:44;;;;;;;8.10;5.32;;;18.60;49.20;;;;;;5106752;27;45365;-77
2022/03/30 01:33:02;;;;;;;10.52;4.78;;;18.60;48.30;;;;;;5106906;27;45336;-77
2022/03/30 01:35:29;;;;;;;6.95;4.70;;;18.60;48.00;;;;;;5109261;27;45399;-77
2022/03/30 01:37:57;;;;;;;9.55;5.65;;;18.60;48.10;;;;;;5107568;27;45305;-77
2022/03/30 01:40:24;;;;;;;7.13;4.82;;;18.60;48.10;;;;;;5108416;27;45439;-77
2022/03/30 01:42:51;;;;;;;9.65;5.90;;;18.60;48.60;;;;;;5111115;27;46122;-78
2022/03/30 01:45:18;;;;;;;7.80;4.70;;;18.60;49.00;;;;;;5110779;27;45305;-77
2022/03/30 01:47:52;;;;;;;6.60;4.47;;;18.60;49.10;;;;;;5104891;27;45263;-77
2022/03/30 01:50:19;;;;;;;7.35;5.00;;;18.70;48.80;;;;;;5103943;27;45203;-77
2022/03/30 01:52:46;;;;;;;6.10;4.25;;;18.70;49.00;;;;;;5104123;27;45366;-77
2022/03/30 01:55:15;;;;;;;6.40;4.57;;;18.70;48.90;;;;;;5108697;27;45340;-77
2022/03/30 01:57:42;;;;;;;7.25;4.57;;;18.70;49.10;;;;;;5104784;27;45287;-77
2022/03/30 02:00:10;;;;;;;8.57;4.90;;;18.70;48.80;;;;;;5105274;27;45366;-77
2022/03/30 02:02:38;;;;;;;5.55;3.90;;;18.70;48.80;;;;;;5106539;27;48416;-77
2022/03/30 02:05:06;;;;;;;6.75;4.82;;;18.70;49.20;;;;;;5106953;27;45186;-77
2022/03/30 02:07:34;;;;;;;7.63;4.55;;;18.70;49.00;;;;;;5108604;27;45321;-77
2022/03/30 02:10:00;;;;;;;9.65;5.32;;;18.60;48.60;;;;;;5107901;27;45364;-77
2022/03/30 02:12:29;;;;;;;8.68;5.13;;;18.70;48.80;;;;;;5107567;27;47377;-77
2022/03/30 02:14:55;;;;;;;8.63;5.05;;;18.60;49.60;;;;;;5105317;27;45104;-77
2022/03/30 02:17:24;;;;;;;7.93;4.70;;;18.60;48.50;;;;;;5107352;27;45168;-77
2022/03/30 02:19:51;;;;;;;8.02;5.30;;;18.60;48.40;;;;;;5108086;27;45482;-77
2022/03/30 02:22:17;;;;;;;9.93;5.13;;;18.60;48.70;;;;;;5107789;27;46575;-77
2022/03/30 02:24:44;;;;;;;6.70;4.45;;;18.60;48.40;;;;;;5106496;27;45230;-77
2022/03/30 02:27:11;;;;;;;7.13;5.28;;;18.60;48.40;;;;;;5106439;27;45278;-77
2022/03/30 02:29:39;;;;;;;7.75;5.20;;;18.60;48.20;;;;;;5107145;27;45134;-77
2022/03/30 02:32:07;;;;;;;9.30;5.85;;;18.60;47.30;;;;;;5103381;27;45421;-77
2022/03/30 02:34:34;;;;;;;7.82;4.97;;;18.60;47.70;;;;;;5105773;27;45490;-77
2022/03/30 02:37:01;;;;;;;8.50;4.85;;;18.60;48.10;;;;;;5103731;27;45626;-77
2022/03/30 02:39:28;;;;;;;7.85;5.05;;;18.60;47.90;;;;;;5106940;27;45225;-77
2022/03/30 02:41:55;;;;;;;8.52;4.97;;;18.60;48.30;;;;;;5108162;27;45985;-77
2022/03/30 02:44:22;;;;;;;8.93;4.53;;;18.60;48.60;;;;;;5107773;27;45264;-77
2022/03/30 02:46:51;;;;;;;10.65;5.07;;;18.60;48.70;;;;;;5104509;27;45261;-77
2022/03/30 02:49:17;;;;;;;7.05;4.22;;;18.60;48.60;;;;;;5107357;27;45279;-77
2022/03/30 02:51:44;;;;;;;8.63;4.72;;;18.70;48.50;;;;;;5106072;27;45458;-77
2022/03/30 02:54:11;;;;;;;6.75;4.38;;;18.70;48.70;;;;;;5111655;27;45313;-77
2022/03/30 02:56:37;;;;;;;10.43;5.75;;;18.60;48.60;;;;;;5106710;27;45272;-77
2022/03/30 02:59:05;;;;;;;9.13;4.30;;;18.70;48.50;;;;;;5106683;27;45645;-77
2022/03/30 03:01:32;;;;;;;7.00;4.50;;;18.70;48.50;;;;;;5113480;27;46302;-77
2022/03/30 03:04:00;;;;;;;8.00;4.85;;;18.70;48.60;;;;;;5114536;27;45294;-77
2022/03/30 03:06:27;;;;;;;8.55;4.88;;;18.70;48.20;;;;;;5113054;27;45292;-77
2022/03/30 03:08:54;;;;;;;9.38;5.57;;;18.60;48.10;;;;;;5108938;27;45424;-77
2022/03/30 03:11:20;;;;;;;8.35;5.32;;;18.70;48.40;;;;;;5113049;27;45307;-77
2022/03/30 03:13:47;;;;;;;7.30;4.95;;;18.60;47.40;;;;;;5111856;27;45267;-77
2022/03/30 03:16:14;;;;;;;8.60;5.43;;;18.60;48.00;;;;;;5114960;27;45376;-77
2022/03/30 03:18:41;;;;;;;9.07;4.72;;;18.60;47.10;;;;;;5113920;27;45178;-77
2022/03/30 03:21:09;;;;;;;8.38;5.25;;;18.60;47.70;;;;;;5107668;27;48165;-78
2022/03/30 03:23:36;;;;;;;8.63;5.22;;;18.60;48.40;;;;;;5112061;27;45359;-77
2022/03/30 03:26:03;;;;;;;10.52;4.80;;;18.60;47.50;;;;;;5114815;27;45238;-77
2022/03/30 03:28:30;;;;;;;9.73;5.53;;;18.60;47.70;;;;;;5111018;27;45379;-77
2022/03/30 03:30:57;;;;;;;10.77;5.15;;;18.60;47.20;;;;;;5113249;27;45314;-77
2022/03/30 03:33:24;;;;;;;9.02;5.07;;;18.60;47.80;;;;;;5107993;27;45517;-77
2022/03/30 03:35:50;;;;;;;9.18;5.32;;;18.60;47.40;;;;;;5112505;27;45235;-77
2022/03/30 03:38:20;;;;;;;10.48;5.35;;;18.60;47.60;;;;;;5113540;27;45158;-77
2022/03/30 03:40:47;;;;;;;8.02;5.15;;;18.60;47.70;;;;;;5113302;27;45298;-78
2022/03/30 03:43:13;;;;;;;7.43;4.93;;;18.60;47.50;;;;;;5114268;27;45271;-77
2022/03/30 03:45:41;;;;;;;10.77;5.32;;;18.60;47.80;;;;;;5112122;27;45169;-77
2022/03/30 03:48:10;;;;;;;8.25;4.60;;;18.60;47.90;;;;;;5113444;27;45333;-77
2022/03/30 03:50:37;;;;;;;9.05;4.85;;;18.60;48.10;;;;;;5109861;27;46824;-77
2022/03/30 03:53:03;;;;;;;9.07;5.57;;;18.60;48.00;;;;;;5114081;27;45262;-77
2022/03/30 03:55:33;;;;;;;8.85;4.68;;;18.60;47.80;;;;;;5111640;27;45321;-77
2022/03/30 03:58:01;;;;;;;8.20;4.65;;;18.60;47.90;;;;;;5099806;27;45635;-78
2022/03/30 04:00:28;;;;;;;9.25;4.75;;;18.60;48.00;;;;;;5111614;27;47050;-77
2022/03/30 04:02:55;;;;;;;8.98;5.05;;;18.60;47.60;;;;;;5114249;27;45574;-77
2022/03/30 04:05:22;;;;;;;9.25;6.00;;;18.60;47.40;;;;;;5111030;27;45428;-77
2022/03/30 04:07:48;;;;;;;8.05;4.95;;;18.60;47.20;;;;;;5109877;27;45323;-77
2022/03/30 04:10:16;;;;;;;10.15;5.05;;;18.60;47.40;;;;;;5106912;27;45968;-77
2022/03/30 04:12:44;;;;;;;8.27;4.78;;;18.50;47.20;;;;;;5107553;27;45231;-77
2022/03/30 04:15:11;;;;;;;9.68;5.70;;;18.50;47.50;;;;;;5100084;27;45206;-77
2022/03/30 04:17:43;;;;;;;8.35;5.40;;;18.50;47.20;;;;;;5108554;27;45326;-77
2022/03/30 04:20:12;;;;;;;9.85;5.82;;;18.50;47.60;;;;;;5109589;27;47393;-77
2022/03/30 04:22:39;;;;;;;8.40;5.55;;;18.50;47.10;;;;;;5109609;27;45232;-77
2022/03/30 04:25:07;;;;;;;8.90;5.25;;;18.50;47.00;;;;;;5107451;27;45288;-77
2022/03/30 04:27:34;;;;;;;10.93;5.93;;;18.50;47.40;;;;;;5107124;27;45223;-76
2022/03/30 04:30:02;;;;;;;10.88;6.03;;;18.50;47.00;;;;;;5108185;27;45450;-76
2022/03/30 04:32:29;;;;;;;8.05;4.88;;;18.40;48.00;;;;;;5108002;27;45253;-76
2022/03/30 04:34:56;;;;;;;8.65;4.53;;;18.50;48.30;;;;;;5106858;27;45372;-76
2022/03/30 04:37:22;;;;;;;7.55;4.97;;;18.50;48.40;;;;;;5110019;27;45380;-76
2022/03/30 04:39:49;;;;;;;10.88;5.00;;;18.50;48.10;;;;;;5108747;27;46228;-76
2022/03/30 04:42:16;;;;;;;8.93;5.22;;;18.50;48.40;;;;;;5110366;27;45442;-77
2022/03/30 04:44:43;;;;;;;10.30;5.80;;;18.50;47.60;;;;;;5102320;27;45869;-77
2022/03/30 04:47:11;;;;;;;9.25;5.90;;;18.50;47.00;;;;;;5105847;27;45420;-77
2022/03/30 04:49:38;;;;;;;11.30;6.22;;;18.40;47.20;;;;;;5106441;27;45332;-77
2022/03/30 04:52:05;;;;;;;11.73;6.32;;;18.40;46.70;;;;;;5108309;27;45502;-76
2022/03/30 04:54:32;;;;;;;11.85;7.00;;;18.50;46.80;;;;;;5108937;27;45265;-77
2022/03/30 04:56:59;;;;;;;11.07;7.65;;;18.50;46.60;;;;;;5100749;27;46560;-77
2022/03/30 04:59:26;;;;;;;11.57;7.50;;;18.40;45.50;;;;;;5099274;27;46588;-76
2022/03/30 05:01:52;;;;;;;10.07;6.65;;;18.50;45.70;;;;;;5103542;27;45514;-76
2022/03/30 05:04:20;;;;;;;12.68;7.55;;;18.50;45.80;;;;;;5108310;27;45474;-77
2022/03/30 05:06:47;;;;;;;12.27;7.35;;;18.50;45.60;;;;;;5107860;27;45370;-76
2022/03/30 05:09:14;;;;;;;11.03;6.93;;;18.40;45.60;;;;;;5107315;27;48053;-76
2022/03/30 05:11:41;;;;;;;10.45;6.15;;;18.40;45.50;;;;;;5108654;27;45389;-76
2022/03/30 05:14:08;;;;;;;10.00;5.40;;;18.40;46.20;;;;;;5107998;27;45342;-76
2022/03/30 05:16:35;;;;;;;10.15;6.55;;;18.40;46.70;;;;;;5105739;27;45380;-76
2022/03/30 05:19:02;;;;;;;9.27;5.60;;;18.40;46.00;;;;;;5105101;27;46257;-76
2022/03/30 05:21:30;;;;;;;11.13;5.75;;;18.30;46.90;;;;;;5096863;27;45311;-76
2022/03/30 05:23:57;;;;;;;9.20;5.70;;;18.40;46.90;;;;;;5107701;27;45362;-75
2022/03/30 05:26:24;;;;;;;10.02;5.35;;;18.30;47.40;;;;;;5107461;27;45479;-75
2022/03/30 05:28:51;;;;;;;8.00;4.50;;;18.40;48.00;;;;;;5106547;27;45368;-75
2022/03/30 05:31:17;;;;;;;10.07;5.03;;;18.40;48.00;;;;;;5106863;27;45721;-76
2022/03/30 05:33:44;;;;;;;8.75;4.72;;;18.40;48.20;;;;;;5105566;27;45171;-76
2022/03/30 05:36:12;;;;;;;9.23;5.28;;;18.40;48.40;;;;;;5104652;27;45322;-76
2022/03/30 05:38:40;;;;;;;9.70;5.32;;;18.40;48.50;;;;;;5106642;27;46185;-76
2022/03/30 05:41:07;;;;;;;10.02;6.05;;;18.40;48.30;;;;;;5103164;27;45257;-76
2022/03/30 05:43:33;;;;;;;9.93;5.75;;;18.50;48.00;;;;;;5104373;27;45310;-76
2022/03/30 05:46:00;;;;;;;9.45;5.95;;;18.50;47.80;;;;;;5103811;27;45480;-76
2022/03/30 05:48:27;;;;;;;9.05;5.80;;;18.60;48.10;;;;;;5104629;27;45322;-76
2022/03/30 05:50:55;;;;;;;10.02;5.40;;;18.60;48.00;;;;;;5108973;27;45404;-76
2022/03/30 05:53:22;;;;;;;8.00;5.38;;;18.60;48.00;;;;;;5108957;27;45221;-76
2022/03/30 05:55:50;;;;;;;9.48;5.82;;;18.60;48.30;;;;;;5105284;27;45202;-76
2022/03/30 05:58:17;;;;;;;9.90;5.65;;;18.60;48.30;;;;;;5107301;27;45249;-76
2022/03/30 06:00:44;;;;;;;10.02;5.82;;;18.60;48.40;;;;;;5108788;27;45294;-77
2022/03/30 06:03:11;;;;;;;8.35;5.15;;;18.60;48.20;;;;;;5105308;27;45622;-75
2022/03/30 06:05:38;;;;;;;9.32;5.70;;;18.60;48.30;;;;;;5109241;27;45566;-76
2022/03/30 06:08:07;;;;;;;10.45;5.97;;;18.60;48.30;;;;;;5108855;27;47381;-76
2022/03/30 06:10:34;;;;;;;9.13;5.45;;;18.60;48.40;;;;;;5107911;27;45179;-76
2022/03/30 06:13:03;;;;;;;8.45;4.95;;;18.60;49.70;;;;;;5104514;27;45552;-76
2022/03/30 06:15:31;;;;;;;9.80;6.03;;;18.60;48.50;;;;;;5108928;27;45297;-76
2022/03/30 06:17:59;;;;;;;10.70;5.75;;;18.60;48.50;;;;;;5103966;27;47082;-76
2022/03/30 06:20:26;;;;;;;11.02;5.75;;;18.60;48.50;;;;;;5107982;27;45249;-76
2022/03/30 06:22:54;;;;;;;9.15;5.57;;;18.60;48.50;;;;;;5097016;27;45255;-76
2022/03/30 06:25:24;;;;;;;8.30;5.20;;;18.60;48.40;;;;;;5108851;27;45303;-76
2022/03/30 06:27:51;;;;;;;7.45;4.80;;;18.60;48.50;;;;;;5094378;27;46394;-76
2022/03/30 06:30:19;;;;;;;6.53;4.35;;;18.60;48.90;;;;;;5107065;27;45324;-76
2022/03/30 06:32:49;;;;;;;9.32;5.00;;;18.50;49.00;;;;;;5101826;27;45332;-76
2022/03/30 06:35:18;;;;;;;6.93;4.00;;;18.50;49.00;;;;;;5094917;27;45333;-76
2022/03/30 06:37:45;;;;;;;9.38;4.65;;;18.60;49.30;;;;;;5098068;27;48160;-76
2022/03/30 06:40:15;;;;;;;12.65;4.85;;;18.60;49.10;;;;;;5101661;27;45292;-76
2022/03/30 06:42:42;;;;;;;8.02;4.68;;;18.60;49.10;;;;;;5105110;27;45279;-76
2022/03/30 06:45:11;;;;;;;8.63;4.50;;;18.60;49.20;;;;;;5101214;27;45338;-76
2022/03/30 06:47:39;;;;;;;8.63;5.03;;;18.60;48.90;;;;;;5100242;27;47874;-77
2022/03/30 06:50:07;;;;;;;10.48;5.40;;;18.60;48.60;;;;;;5099742;27;46016;-77
2022/03/30 06:52:35;;;;;;;8.80;5.13;;;18.60;48.70;;;;;;5100327;27;45622;-77
2022/03/30 06:55:03;;;;;;;8.07;4.65;;;18.50;48.30;;;;;;5103649;27;45880;-76
2022/03/30 06:57:30;;;;;;;8.15;4.85;;;18.50;48.50;;;;;;5105811;27;46447;-76
2022/03/30 06:59:57;;;;;;;11.57;6.15;;;18.50;48.50;;;;;;5104789;27;45256;-77
2022/03/30 07:02:24;;;;;;;8.85;5.20;;;18.50;48.50;;;;;;5104077;27;45297;-76
2022/03/30 07:04:52;;;;;;;8.68;4.82;;;18.50;48.50;;;;;;5104486;27;45432;-76
2022/03/30 07:10:17;;;;;;;9.27;5.70;;;18.50;48.50;;;;;;5088737;27;45232;-76
2022/03/30 07:12:46;;;;;;;11.45;5.90;;;18.50;48.70;;;;;;5104656;27;45177;-76
2022/03/30 07:15:14;;;;;;;7.22;5.05;;;18.50;48.50;;;;;;5107016;27;45762;-76
2022/03/30 07:17:45;;;;;;;9.93;4.82;;;18.50;49.80;;;;;;5105069;27;47431;-76
2022/03/30 07:20:14;;;;;;;8.43;5.50;;;18.50;48.60;;;;;;5106306;27;45220;-76
2022/03/30 07:22:41;;;;;;;10.23;4.88;;;18.50;48.50;;;;;;5106188;27;45224;-76
2022/03/30 07:25:08;;;;;;;10.57;5.63;;;18.50;48.70;;;;;;5100724;27;45361;-76
2022/03/30 07:27:38;;;;;;;9.50;4.72;;;18.50;48.70;;;;;;5106529;27;45972;-76
2022/03/30 07:30:06;;;;;;;8.65;4.30;;;18.60;48.90;;;;;;5105765;27;45182;-76
2022/03/30 07:32:33;;;;;;;8.30;5.00;;;18.50;48.90;;;;;;5106867;27;45297;-76
2022/03/30 07:34:59;;;;;;;7.43;4.50;;;18.60;48.80;;;;;;5108498;27;46127;-75
2022/03/30 07:37:28;;;;;;;7.47;4.30;;;18.50;48.80;;;;;;5107485;27;45443;-76
2022/03/30 07:39:54;;;;;;;11.15;4.63;;;18.60;49.00;;;;;;5098290;27;45306;-77
2022/03/30 07:42:21;;;;;;;9.70;5.65;;;18.50;48.90;;;;;;5105238;27;45349;-76
2022/03/30 07:44:48;;;;;;;9.68;4.70;;;18.50;48.90;;;;;;5106984;27;45318;-76
2022/03/30 07:47:15;;;;;;;10.20;6.00;;;18.60;48.90;;;;;;5109561;27;46586;-77
2022/03/30 07:49:42;;;;;;;10.57;6.20;;;18.60;48.10;;;;;;5109805;27;45151;-77
2022/03/30 07:52:09;;;;;;;8.73;5.35;;;18.60;48.50;;;;;;5108788;27;45200;-76
2022/03/30 07:54:37;;;;;;;10.30;5.82;;;18.50;48.10;;;;;;5111532;27;45314;-76
2022/03/30 07:57:04;;;;;;;10.30;5.63;;;18.50;48.10;;;;;;5109549;27;46416;-77
2022/03/30 07:59:31;;;;;;;10.48;5.80;;;18.50;48.40;;;;;;5108832;27;45215;-76
2022/03/30 08:01:58;;;;;;;11.40;6.55;;;18.50;48.20;;;;;;5108939;27;45193;-76
2022/03/30 08:04:25;;;;;;;10.65;5.95;;;18.50;48.20;;;;;;5109996;27;45497;-76
2022/03/30 08:06:52;;;;;;;9.55;5.75;;;18.50;48.20;;;;;;5108809;27;46233;-76
2022/03/30 08:09:20;;;;;;;8.75;5.20;;;18.50;48.10;;;;;;5103638;27;45144;-76
2022/03/30 08:11:48;;;;;;;9.68;5.35;;;18.50;48.00;;;;;;5110798;27;45213;-76
2022/03/30 08:14:15;;;;;;;9.27;5.55;;;18.50;48.00;;;;;;5109648;27;45160;-76
2022/03/30 08:16:41;;;;;;;9.70;6.10;;;18.50;48.10;;;;;;5108900;27;47633;-77
2022/03/30 08:19:08;;;;;;;7.93;4.95;;;18.50;48.00;;;;;;5108141;27;45516;-77
2022/03/30 08:24:21;;;;;;;8.60;4.85;;;18.50;48.50;;;;;;5107728;27;45184;-77
2022/03/30 08:26:49;;;;;;;9.57;4.68;;;18.50;48.40;;;;;;5107085;27;48153;-77
2022/03/30 08:29:16;;;;;;;10.70;4.97;;;18.60;49.10;;;;;;5106490;27;45303;-76
2022/03/30 08:31:43;;;;;;;8.80;4.90;;;18.60;48.70;;;;;;5105972;27;45305;-76
2022/03/30 08:34:10;;;;;;;10.10;5.65;;;18.60;48.60;;;;;;5099835;27;45451;-77
2022/03/30 08:36:37;;;;;;;7.80;4.57;;;18.60;48.60;;;;;;5109494;27;48304;-76
2022/03/30 08:39:10;;;;;;;9.23;4.35;;;18.60;48.70;;;;;;5109337;27;45234;-77
2022/03/30 08:41:40;;;;;;;9.50;5.40;;;18.60;48.70;;;;;;5108573;27;45386;-76
2022/03/30 08:44:08;;;;;;;11.55;5.68;;;18.60;48.10;;;;;;5111428;27;45465;-76
2022/03/30 08:46:35;;;;;;;8.73;5.10;;;18.60;48.10;;;;;;5108463;27;47421;-77
2022/03/30 08:49:02;;;;;;;8.55;5.20;;;18.60;47.70;;;;;;5092202;27;45313;-76
2022/03/30 08:51:31;;;;;;;11.23;5.15;;;18.50;47.40;;;;;;5106245;27;45289;-76
2022/03/30 08:53:58;;;;;;;7.07;4.72;;;18.60;47.20;;;;;;5105175;27;45404;-76
2022/03/30 08:56:25;;;;;;;9.95;4.95;;;18.50;47.30;;;;;;5102075;27;46045;-77
2022/03/30 08:58:55;;;;;;;10.05;5.15;;;18.50;47.40;;;;;;5105724;27;45432;-77
2022/03/30 09:01:24;;;;;;;8.50;4.90;;;18.50;47.30;;;;;;5105782;27;45481;-77
2022/03/30 09:03:58;;;;;;;8.02;5.07;;;18.50;47.40;;;;;;5101958;27;45304;-76
2022/03/30 09:06:36;;;;;;;9.43;4.85;;;18.50;47.50;;;;;;5109382;27;47485;-77
2022/03/30 09:09:04;;;;;;;9.85;5.55;;;18.50;47.40;;;;;;5105315;27;45282;-77
2022/03/30 09:11:40;;;;;;;10.75;6.22;;;18.50;46.90;;;;;;5107324;27;45293;-76
2022/03/30 09:14:09;;;;;;;7.25;4.75;;;18.50;46.80;;;;;;5106959;27;45475;-77
2022/03/30 09:16:42;;;;;;;8.27;4.45;;;18.50;47.30;;;;;;5108443;27;47376;-77
2022/03/30 09:19:11;;;;;;;8.00;4.72;;;18.50;47.50;;;;;;5106209;27;45299;-77
2022/03/30 09:21:43;;;;;;;8.55;4.30;;;18.50;47.90;;;;;;5109347;27;45196;-76
2022/03/30 09:24:10;;;;;;;7.07;4.07;;;18.60;48.30;;;;;;5105357;27;45178;-77
2022/03/30 09:26:37;;;;;;;6.93;4.22;;;18.60;48.50;;;;;;5109513;27;45503;-77
2022/03/30 09:29:07;;;;;;;7.60;4.10;;;18.60;48.00;;;;;;5104995;27;45296;-77
2022/03/30 09:31:36;;;;;;;7.15;4.32;;;18.60;48.00;;;;;;5108835;27;45407;-77
2022/03/30 09:34:06;;;;;;;7.70;3.90;;;18.60;48.30;;;;;;5105253;27;45209;-77
2022/03/30 09:36:35;;;;;;;5.20;3.53;;;18.60;48.00;;;;;;5107115;27;47177;-77
2022/03/30 09:39:02;;;;;;;5.72;3.83;;;18.60;48.10;;;;;;5107425;27;45192;-76
2022/03/30 09:41:46;;;;;;;5.78;3.67;;;18.60;47.50;;;;;;5108897;27;45266;-76
2022/03/30 09:44:12;;;;;;;7.53;4.07;;;18.60;47.40;;;;;;5106117;27;45237;-77
2022/03/30 09:46:52;;;;;;;9.32;5.25;;;18.60;46.40;;;;;;5105932;27;45424;-77
2022/03/30 09:49:35;;;;;;;8.52;5.03;;;18.60;45.90;;;;;;5100301;27;45529;-76
2022/03/30 09:52:02;;;;;;;9.48;5.10;;;18.60;45.80;;;;;;5107032;27;45336;-77
2022/03/30 09:54:39;;;;;;;7.85;4.55;;;18.60;45.90;;;;;;5113128;27;45557;-77
2022/03/30 09:57:14;;;;;;;8.68;4.32;;;18.60;45.60;;;;;;5108492;27;45719;-76
2022/03/30 10:00:07;;;;;;;8.63;4.25;;;18.60;45.70;;;;;;5105907;27;45591;-77
2022/03/30 10:02:35;;;;;;;6.18;4.25;;;18.60;45.30;;;;;;5107964;27;45289;-76
2022/03/30 10:05:05;;;;;;;7.25;3.83;;;18.60;45.60;;;;;;5107715;27;45347;-76
2022/03/30 10:07:32;;;;;;;7.75;4.25;;;18.60;45.70;;;;;;5108444;27;47970;-77
2022/03/30 10:10:00;;;;;;;7.28;4.10;;;18.60;45.90;;;;;;5105323;27;45296;-77
2022/03/30 10:12:28;;;;;;;5.78;3.38;;;18.60;46.00;;;;;;5107079;27;45321;-76
2022/03/30 10:14:55;;;;;;;4.60;2.78;;;18.60;46.90;;;;;;5106340;27;45479;-79
2022/03/30 10:17:23;;;;;;;6.28;3.28;;;18.60;47.30;;;;;;5106476;27;46629;-77
2022/03/30 10:19:52;;;;;;;4.97;3.15;;;18.60;47.50;;;;;;5107778;27;45307;-77
2022/03/30 10:23:02;;;;;;;5.75;2.95;;;18.60;47.00;;;;;;5105006;27;45289;-77
2022/03/30 10:25:48;;;;;;;7.88;3.45;;;18.60;46.50;;;;;;5071939;27;45428;-77
2022/03/30 10:28:21;;;;;;;6.55;3.50;;;18.60;46.80;;;;;;5092097;27;46234;-76
2022/03/30 10:30:53;;;;;;;4.68;2.88;;;18.60;47.30;;;;;;5105092;27;45366;-77
2022/03/30 10:33:30;;;;;;;5.93;2.65;;;18.70;47.20;;;;;;5101221;27;45439;-76
2022/03/30 10:35:58;;;;;;;5.25;3.00;;;18.70;47.00;;;;;;5107011;27;45367;-76
2022/03/30 10:38:26;;;;;;;7.50;3.53;;;18.70;46.60;;;;;;5106747;27;46282;-76
2022/03/30 10:41:09;;;;;;;6.20;3.67;;;18.60;45.50;;;;;;5108126;27;45639;-76
2022/03/30 10:43:36;;;;;;;5.85;3.55;;;18.60;44.90;;;;;;5104465;27;45205;-76
2022/03/30 10:46:04;;;;;;;6.00;3.55;;;18.60;45.30;;;;;;5106667;27;45436;-76
2022/03/30 10:48:38;;;;;;;6.63;3.38;;;18.60;44.60;;;;;;5105857;27;46728;-76
2022/03/30 10:51:26;;;;;;;6.88;4.15;;;18.60;44.40;;;;;;5105258;27;45149;-76
2022/03/30 10:53:54;;;;;;;6.93;4.10;;;18.60;45.60;;;;;;5100614;27;45295;-76
2022/03/30 10:56:34;;;;;;;7.35;3.40;;;18.60;44.60;;;;;;5106569;27;46620;-76
2022/03/30 10:59:09;;;;;;;6.53;3.95;;;18.60;44.70;;;;;;5103581;27;46418;-76
2022/03/30 11:01:39;;;;;;;5.55;3.47;;;18.60;45.00;;;;;;5107820;27;45224;-76
2022/03/30 11:04:07;;;;;;;6.45;3.72;;;18.60;44.40;;;;;;5104058;27;45261;-76
2022/03/30 11:06:36;;;;;;;6.88;3.90;;;18.60;44.50;;;;;;5104350;27;45362;-76
2022/03/30 11:09:07;;;;;;;4.55;2.63;;;18.60;44.60;;;;;;5106464;27;45521;-76
2022/03/30 11:11:39;;;;;;;4.93;3.17;;;18.60;45.50;;;;;;5100956;27;45169;-76
2022/03/30 11:14:28;;;;;;;7.47;3.10;;;18.60;46.50;;;;;;5101778;27;45148;-76
2022/03/30 11:16:56;;;;;;;4.18;2.88;;;18.60;46.00;;;;;;5105536;27;45487;-76
2022/03/30 11:19:29;;;;;;;4.85;2.75;;;18.70;46.60;;;;;;5090503;27;48155;-76
2022/03/30 11:22:08;;;;;;;5.07;2.80;;;18.60;46.20;;;;;;5100528;27;45161;-76
2022/03/30 11:24:37;;;;;;;6.13;3.00;;;18.70;46.70;;;;;;5111603;27;45324;-76
2022/03/30 11:27:23;;;;;;;4.13;3.05;;;18.70;46.60;;;;;;5109079;27;45302;-76
2022/03/30 11:30:10;;;;;;;4.53;2.58;;;18.70;46.60;;;;;;5102816;27;46183;-76
2022/03/30 11:32:42;;;;;;;4.45;2.90;;;18.70;46.80;;;;;;5100340;27;45569;-76
2022/03/30 11:35:11;;;;;;;4.53;2.78;;;18.70;45.90;;;;;;5110478;27;45161;-76
2022/03/30 11:37:40;;;;;;;4.47;3.17;;;18.70;46.20;;;;;;5111295;27;45320;-76
2022/03/30 11:40:11;;;;;;;6.53;3.00;;;18.70;45.60;;;;;;5109191;27;45144;-76
2022/03/30 11:42:40;;;;;;;5.25;3.10;;;18.60;45.60;;;;;;5109584;27;45208;-76
2022/03/30 11:45:17;;;;;;;4.35;2.90;;;18.60;45.90;;;;;;5109753;27;45221;-76
2022/03/30 11:47:45;;;;;;;5.93;3.38;;;18.60;45.70;;;;;;5099691;27;45241;-76
2022/03/30 11:50:13;;;;;;;6.18;3.67;;;18.60;45.30;;;;;;5109941;27;46295;-76
2022/03/30 11:52:40;;;;;;;5.32;3.60;;;18.60;45.20;;;;;;5107726;27;45445;-76
2022/03/30 11:55:09;;;;;;;6.43;3.53;;;18.60;45.00;;;;;;5111288;27;45137;-76
2022/03/30 11:57:42;;;;;;;4.35;2.60;;;18.60;44.80;;;;;;5109083;27;45299;-76
2022/03/30 12:00:11;;;;;;;4.40;2.85;;;18.60;45.50;;;;;;5107130;27;46583;-76
2022/03/30 12:02:39;;;;;;;4.10;2.97;;;18.60;45.00;;;;;;5107794;27;45367;-76
2022/03/30 12:05:08;;;;;;;5.63;3.15;;;18.60;44.90;;;;;;5109085;27;45587;-76
2022/03/30 12:07:36;;;;;;;3.55;2.40;;;18.60;45.50;;;;;;5110376;27;45333;-76
2022/03/30 12:10:06;;;;;;;5.85;2.60;;;18.50;45.80;;;;;;5109292;27;47389;-76
2022/03/30 12:12:36;;;;;;;6.50;3.00;;;18.70;46.50;;;;;;5112699;27;45291;-76
2022/03/30 12:15:06;;;;;;;5.15;2.67;;;18.70;46.20;;;;;;5121603;27;45207;-76
2022/03/30 12:17:34;;;;;;;4.00;2.40;;;18.70;46.30;;;;;;5098528;27;45452;-76
2022/03/30 12:20:02;;;;;;;3.70;2.53;;;18.70;46.50;;;;;;5109475;27;45524;-76
2022/03/30 12:22:29;;;;;;;4.50;2.78;;;18.70;46.00;;;;;;5109765;27;45280;-76
2022/03/30 12:24:57;;;;;;;4.10;2.85;;;18.70;46.10;;;;;;5110030;27;45233;-76
2022/03/30 12:27:25;;;;;;;5.60;2.85;;;18.70;45.80;;;;;;5106862;27;46527;-76
2022/03/30 12:29:56;;;;;;;5.93;2.72;;;18.70;45.80;;;;;;5108781;27;45363;-76
2022/03/30 12:32:24;;;;;;;4.60;3.17;;;18.70;44.00;;;;;;5107422;27;45325;-76
2022/03/30 12:35:05;;;;;;;5.20;3.28;;;18.70;44.20;;;;;;5109627;27;45505;-76
2022/03/30 12:37:32;;;;;;;6.50;2.95;;;18.60;43.90;;;;;;5105009;27;45265;-76
2022/03/30 12:40:09;;;;;;;5.18;3.25;;;18.60;44.40;;;;;;5104502;27;46206;-76
2022/03/30 12:42:36;;;;;;;6.55;3.13;;;18.60;44.40;;;;;;5100247;27;45185;-76
2022/03/30 12:45:10;;;;;;;5.88;3.33;;;18.60;44.40;;;;;;5105256;27;45183;-75
2022/03/30 12:47:39;;;;;;;8.32;3.55;;;18.60;43.70;;;;;;5108307;27;46909;-76
2022/03/30 12:50:08;;;;;;;5.57;3.20;;;18.60;44.00;;;;;;5098393;27;45656;-75
2022/03/30 12:52:38;;;;;;;4.80;3.05;;;18.60;44.40;;;;;;5107392;27;45347;-76
2022/03/30 12:55:16;;;;;;;5.32;2.80;;;18.60;44.40;;;;;;5104751;27;45638;-75
2022/03/30 12:57:54;;;;;;;3.72;2.47;;;18.50;45.60;;;;;;5100807;27;45166;-76
2022/03/30 13:00:25;;;;;;;4.22;2.58;;;18.60;45.30;;;;;;5100623;27;46164;-75
2022/03/30 13:03:12;;;;;;;4.30;2.80;;;18.60;46.20;;;;;;5104594;27;45259;-76